IGO115 VECC-VABB
Flight info
| Callsign | IGO115 |
|---|---|
| Flight time | 2h 16m |
| Altitude | 28000 |
| Route | JJS2C JJS/N0462F320 Q20 OPAKA EMRAK2A |
| Aircraft | A321/M-SDE3FGHIRWY/LB1 |
Departure
| Time | 2026-04-23 19:29 |
|---|---|
| Airport | Netaji Subhash Chandra Bose International Airport (VECC) |
Arrival
| Time | 2026-04-23 21:46 |
|---|---|
| Airport | Chhatrapati Shivaji Maharaj International Airport (VABB) |
| Time | Latitude | Longitude | Altitude | Speed | Heading |
|---|---|---|---|---|---|
| 2026-04-23 18:48 | 22.64268 | 88.44073 | 28 ft | 0 kts | 276° |
| 2026-04-23 19:18 | 22.64265 | 88.44077 | 28 ft | 4 kts | 258° |
| 2026-04-23 19:18 | 22.64264 | 88.44102 | 26 ft | 4 kts | 275° |
| 2026-04-23 19:18 | 22.64259 | 88.44131 | 25 ft | 4 kts | 287° |
| 2026-04-23 19:18 | 22.64250 | 88.44157 | 26 ft | 2 kts | 294° |
| 2026-04-23 19:19 | 22.64248 | 88.44163 | 27 ft | 0 kts | 294° |
| 2026-04-23 19:22 | 22.64250 | 88.44160 | 26 ft | 1 kts | 304° |
| 2026-04-23 19:22 | 22.64270 | 88.44147 | 26 ft | 5 kts | 336° |
| 2026-04-23 19:22 | 22.64403 | 88.44155 | 24 ft | 14 kts | 6° |
| 2026-04-23 19:23 | 22.64509 | 88.44168 | 24 ft | 17 kts | 6° |
| 2026-04-23 19:23 | 22.64643 | 88.44186 | 24 ft | 21 kts | 9° |
| 2026-04-23 19:23 | 22.64797 | 88.44203 | 26 ft | 24 kts | 7° |
| 2026-04-23 19:24 | 22.65142 | 88.44243 | 25 ft | 24 kts | 6° |
| 2026-04-23 19:24 | 22.65308 | 88.44263 | 25 ft | 17 kts | 6° |
| 2026-04-23 19:24 | 22.65520 | 88.44304 | 25 ft | 16 kts | 44° |
| 2026-04-23 19:25 | 22.65672 | 88.44401 | 25 ft | 17 kts | 8° |
| 2026-04-23 19:25 | 22.65948 | 88.44442 | 25 ft | 24 kts | 9° |
| 2026-04-23 19:26 | 22.66329 | 88.44492 | 25 ft | 28 kts | 6° |
| 2026-04-23 19:26 | 22.66523 | 88.44517 | 25 ft | 28 kts | 8° |
| 2026-04-23 19:27 | 22.66902 | 88.44583 | 25 ft | 27 kts | 6° |
| 2026-04-23 19:27 | 22.67336 | 88.44816 | 26 ft | 23 kts | 79° |
| 2026-04-23 19:28 | 22.67232 | 88.44982 | 27 ft | 14 kts | 185° |
| 2026-04-23 19:28 | 22.66379 | 88.44884 | 23 ft | 122 kts | 186° |
| 2026-04-23 19:29 | 22.65365 | 88.44766 | 28 ft | 169 kts | 186° |
| 2026-04-23 19:29 | 22.63481 | 88.44533 | 1044 ft | 161 kts | 188° |
| 2026-04-23 19:30 | 22.61706 | 88.43070 | 1973 ft | 188 kts | 247° |
| 2026-04-23 19:30 | 22.61354 | 88.41614 | 2361 ft | 213 kts | 255° |
| 2026-04-23 19:30 | 22.60563 | 88.38133 | 3320 ft | 262 kts | 256° |
| 2026-04-23 19:31 | 22.59961 | 88.35532 | 4357 ft | 273 kts | 257° |
| 2026-04-23 19:31 | 22.59647 | 88.34177 | 4943 ft | 276 kts | 257° |
| 2026-04-23 19:31 | 22.59177 | 88.32160 | 5837 ft | 277 kts | 256° |
| 2026-04-23 19:31 | 22.58702 | 88.30130 | 6666 ft | 280 kts | 256° |
| 2026-04-23 19:32 | 22.58221 | 88.28087 | 7463 ft | 281 kts | 256° |
| 2026-04-23 19:32 | 22.57755 | 88.26051 | 8242 ft | 283 kts | 261° |
| 2026-04-23 19:32 | 22.57638 | 88.23926 | 8999 ft | 284 kts | 274° |
| 2026-04-23 19:32 | 22.57732 | 88.21787 | 9750 ft | 285 kts | 273° |
| 2026-04-23 19:33 | 22.57824 | 88.19595 | 10103 ft | 302 kts | 273° |
| 2026-04-23 19:33 | 22.57919 | 88.17247 | 10228 ft | 322 kts | 273° |
| 2026-04-23 19:33 | 22.58116 | 88.12180 | 10586 ft | 347 kts | 273° |
| 2026-04-23 19:34 | 22.58183 | 88.10382 | 10770 ft | 353 kts | 273° |
| 2026-04-23 19:34 | 22.58263 | 88.08286 | 10871 ft | 362 kts | 273° |
| 2026-04-23 19:34 | 22.58481 | 88.02657 | 11112 ft | 385 kts | 273° |
| 2026-04-23 19:35 | 22.58591 | 87.99734 | 11237 ft | 394 kts | 273° |
| 2026-04-23 19:35 | 22.58702 | 87.96721 | 11384 ft | 402 kts | 272° |
| 2026-04-23 19:35 | 22.58813 | 87.93687 | 11673 ft | 406 kts | 273° |
| 2026-04-23 19:35 | 22.58926 | 87.90619 | 11977 ft | 409 kts | 272° |
| 2026-04-23 19:36 | 22.59038 | 87.87543 | 12280 ft | 411 kts | 272° |
| 2026-04-23 19:36 | 22.59151 | 87.84437 | 12586 ft | 414 kts | 273° |
| 2026-04-23 19:36 | 22.59265 | 87.81324 | 12879 ft | 416 kts | 273° |
| 2026-04-23 19:36 | 22.59380 | 87.78180 | 13175 ft | 419 kts | 272° |
| 2026-04-23 19:37 | 22.59496 | 87.75017 | 13471 ft | 422 kts | 272° |
| 2026-04-23 19:37 | 22.59613 | 87.71835 | 13733 ft | 424 kts | 273° |
| 2026-04-23 19:37 | 22.59728 | 87.68647 | 13984 ft | 426 kts | 273° |
| 2026-04-23 19:37 | 22.59842 | 87.65430 | 14234 ft | 428 kts | 272° |
| 2026-04-23 19:38 | 22.59954 | 87.62236 | 14477 ft | 431 kts | 272° |
| 2026-04-23 19:38 | 22.60068 | 87.58942 | 14740 ft | 433 kts | 273° |
| 2026-04-23 19:38 | 22.60179 | 87.55727 | 14988 ft | 435 kts | 272° |
| 2026-04-23 19:38 | 22.60293 | 87.52446 | 15234 ft | 438 kts | 272° |
| 2026-04-23 19:39 | 22.60408 | 87.49141 | 15498 ft | 440 kts | 272° |
| 2026-04-23 19:39 | 22.60523 | 87.45818 | 15760 ft | 442 kts | 272° |
| 2026-04-23 19:39 | 22.60641 | 87.42490 | 16017 ft | 445 kts | 272° |
| 2026-04-23 19:39 | 22.60762 | 87.39132 | 16268 ft | 448 kts | 272° |
| 2026-04-23 19:40 | 22.60878 | 87.35762 | 16532 ft | 450 kts | 272° |
| 2026-04-23 19:40 | 22.60989 | 87.32366 | 16820 ft | 451 kts | 271° |
| 2026-04-23 19:40 | 22.61099 | 87.28958 | 17102 ft | 453 kts | 271° |
| 2026-04-23 19:40 | 22.61206 | 87.25548 | 17367 ft | 455 kts | 271° |
| 2026-04-23 19:41 | 22.61314 | 87.22111 | 17644 ft | 457 kts | 271° |
| 2026-04-23 19:41 | 22.61424 | 87.18664 | 17767 ft | 458 kts | 271° |
| 2026-04-23 19:41 | 22.61539 | 87.15217 | 17789 ft | 458 kts | 271° |
| 2026-04-23 19:41 | 22.61656 | 87.11782 | 17788 ft | 458 kts | 271° |
| 2026-04-23 19:42 | 22.61771 | 87.08335 | 17797 ft | 458 kts | 271° |
| 2026-04-23 19:42 | 22.61881 | 87.04888 | 17797 ft | 458 kts | 271° |
| 2026-04-23 19:42 | 22.61991 | 87.01442 | 17797 ft | 458 kts | 271° |
| 2026-04-23 19:42 | 22.62101 | 86.98009 | 17797 ft | 457 kts | 271° |
| 2026-04-23 19:43 | 22.62207 | 86.94563 | 17804 ft | 458 kts | 271° |
| 2026-04-23 19:43 | 22.62308 | 86.91129 | 17802 ft | 456 kts | 271° |
| 2026-04-23 19:43 | 22.62411 | 86.87692 | 17802 ft | 456 kts | 271° |
| 2026-04-23 19:43 | 22.62515 | 86.84305 | 17802 ft | 456 kts | 271° |
| 2026-04-23 19:44 | 22.62624 | 86.80838 | 17799 ft | 456 kts | 271° |
| 2026-04-23 19:44 | 22.62729 | 86.77451 | 17811 ft | 456 kts | 271° |
| 2026-04-23 19:44 | 22.62834 | 86.74018 | 17811 ft | 456 kts | 271° |
| 2026-04-23 19:44 | 22.62935 | 86.70590 | 17810 ft | 456 kts | 271° |
| 2026-04-23 19:45 | 22.63034 | 86.67157 | 17808 ft | 456 kts | 271° |
| 2026-04-23 19:45 | 22.63131 | 86.63723 | 17819 ft | 456 kts | 271° |
| 2026-04-23 19:45 | 22.63230 | 86.60301 | 17819 ft | 456 kts | 271° |
| 2026-04-23 19:45 | 22.63328 | 86.56856 | 17819 ft | 456 kts | 271° |
| 2026-04-23 19:46 | 22.63441 | 86.53437 | 17815 ft | 455 kts | 274° |
| 2026-04-23 19:46 | 22.63917 | 86.50051 | 17816 ft | 455 kts | 284° |
| 2026-04-23 19:46 | 22.64886 | 86.46803 | 17822 ft | 454 kts | 293° |
| 2026-04-23 19:46 | 22.66316 | 86.43753 | 17821 ft | 454 kts | 302° |
| 2026-04-23 19:47 | 22.67985 | 86.40847 | 17825 ft | 454 kts | 302° |
| 2026-04-23 19:47 | 22.69646 | 86.37947 | 17824 ft | 454 kts | 302° |
| 2026-04-23 19:47 | 22.71307 | 86.35034 | 17824 ft | 454 kts | 302° |
| 2026-04-23 19:47 | 22.72969 | 86.32111 | 17977 ft | 456 kts | 302° |
| 2026-04-23 19:48 | 22.74635 | 86.29177 | 18240 ft | 458 kts | 302° |
| 2026-04-23 19:48 | 22.76285 | 86.26266 | 18478 ft | 460 kts | 302° |
| 2026-04-23 19:48 | 22.77912 | 86.23235 | 18719 ft | 461 kts | 296° |
| 2026-04-23 19:48 | 22.79064 | 86.20039 | 18937 ft | 462 kts | 286° |
| 2026-04-23 19:49 | 22.79688 | 86.16633 | 19180 ft | 463 kts | 276° |
| 2026-04-23 19:49 | 22.79761 | 86.13139 | 19379 ft | 464 kts | 265° |
| 2026-04-23 19:49 | 22.79275 | 86.09674 | 19588 ft | 466 kts | 256° |
| 2026-04-23 19:49 | 22.78410 | 86.06297 | 19809 ft | 467 kts | 254° |
| 2026-04-23 19:50 | 22.77517 | 86.02906 | 20052 ft | 468 kts | 253° |
| 2026-04-23 19:50 | 22.76618 | 85.99510 | 20296 ft | 469 kts | 253° |
| 2026-04-23 19:50 | 22.75718 | 85.96119 | 20524 ft | 470 kts | 254° |
| 2026-04-23 19:50 | 22.74813 | 85.92711 | 20780 ft | 470 kts | 254° |
| 2026-04-23 19:51 | 22.73908 | 85.89298 | 21033 ft | 471 kts | 254° |
| 2026-04-23 19:51 | 22.73006 | 85.85890 | 21279 ft | 472 kts | 254° |
| 2026-04-23 19:51 | 22.72100 | 85.82469 | 21543 ft | 472 kts | 254° |
| 2026-04-23 19:51 | 22.71192 | 85.79046 | 21795 ft | 473 kts | 254° |
| 2026-04-23 19:52 | 22.70282 | 85.75617 | 22017 ft | 473 kts | 254° |
| 2026-04-23 19:52 | 22.69370 | 85.72184 | 22246 ft | 474 kts | 254° |
| 2026-04-23 19:52 | 22.68467 | 85.68791 | 22452 ft | 475 kts | 254° |
| 2026-04-23 19:52 | 22.67541 | 85.65313 | 22649 ft | 476 kts | 254° |
| 2026-04-23 19:53 | 22.66636 | 85.61911 | 22830 ft | 476 kts | 254° |
| 2026-04-23 19:53 | 22.65707 | 85.58423 | 22999 ft | 477 kts | 254° |
| 2026-04-23 19:53 | 22.64795 | 85.55012 | 23174 ft | 478 kts | 254° |
| 2026-04-23 19:53 | 22.63869 | 85.51551 | 23331 ft | 478 kts | 254° |
| 2026-04-23 19:54 | 22.62931 | 85.48054 | 23511 ft | 478 kts | 254° |
| 2026-04-23 19:54 | 22.62015 | 85.44646 | 23708 ft | 477 kts | 254° |
| 2026-04-23 19:54 | 22.61091 | 85.41202 | 23918 ft | 476 kts | 254° |
| 2026-04-23 19:54 | 22.60161 | 85.37729 | 24126 ft | 475 kts | 254° |
| 2026-04-23 19:55 | 22.59257 | 85.34344 | 24321 ft | 473 kts | 254° |
| 2026-04-23 19:55 | 22.58340 | 85.30923 | 24548 ft | 472 kts | 254° |
| 2026-04-23 19:55 | 22.57414 | 85.27480 | 24778 ft | 471 kts | 254° |
| 2026-04-23 19:55 | 22.56497 | 85.24082 | 24995 ft | 469 kts | 254° |
| 2026-04-23 19:56 | 22.55581 | 85.20695 | 25225 ft | 468 kts | 254° |
| 2026-04-23 19:56 | 22.54672 | 85.17330 | 25466 ft | 466 kts | 254° |
| 2026-04-23 19:56 | 22.53775 | 85.14008 | 25702 ft | 465 kts | 254° |
| 2026-04-23 19:56 | 22.52859 | 85.10620 | 25939 ft | 463 kts | 254° |
| 2026-04-23 19:57 | 22.51969 | 85.07322 | 26187 ft | 462 kts | 254° |
| 2026-04-23 19:57 | 22.51067 | 85.03992 | 26426 ft | 460 kts | 254° |
| 2026-04-23 19:57 | 22.50164 | 85.00671 | 26652 ft | 459 kts | 254° |
| 2026-04-23 19:57 | 22.49266 | 84.97371 | 26894 ft | 458 kts | 254° |
| 2026-04-23 19:58 | 22.48371 | 84.94068 | 27138 ft | 456 kts | 254° |
| 2026-04-23 19:58 | 22.47484 | 84.90788 | 27404 ft | 455 kts | 254° |
| 2026-04-23 19:58 | 22.46594 | 84.87509 | 27663 ft | 453 kts | 254° |
| 2026-04-23 19:58 | 22.45705 | 84.84243 | 27927 ft | 452 kts | 254° |
| 2026-04-23 19:59 | 22.44818 | 84.80989 | 28185 ft | 450 kts | 254° |
| 2026-04-23 19:59 | 22.43936 | 84.77757 | 28452 ft | 448 kts | 254° |
| 2026-04-23 19:59 | 22.43054 | 84.74527 | 28708 ft | 447 kts | 254° |
| 2026-04-23 19:59 | 22.42177 | 84.71318 | 28970 ft | 445 kts | 254° |
| 2026-04-23 20:00 | 22.41300 | 84.68111 | 29244 ft | 444 kts | 254° |
| 2026-04-23 20:00 | 22.40429 | 84.64922 | 29513 ft | 442 kts | 254° |
| 2026-04-23 20:00 | 22.39560 | 84.61741 | 29781 ft | 440 kts | 254° |
| 2026-04-23 20:00 | 22.38695 | 84.58579 | 30020 ft | 438 kts | 253° |
| 2026-04-23 20:01 | 22.37831 | 84.55425 | 30262 ft | 436 kts | 253° |
| 2026-04-23 20:01 | 22.36969 | 84.52290 | 30516 ft | 434 kts | 253° |
| 2026-04-23 20:01 | 22.36113 | 84.49171 | 30752 ft | 431 kts | 253° |
| 2026-04-23 20:01 | 22.35266 | 84.46085 | 31013 ft | 428 kts | 253° |
| 2026-04-23 20:02 | 22.34420 | 84.43010 | 31275 ft | 425 kts | 253° |
| 2026-04-23 20:02 | 22.33582 | 84.39965 | 31534 ft | 422 kts | 253° |
| 2026-04-23 20:02 | 22.32746 | 84.36930 | 31794 ft | 420 kts | 253° |
| 2026-04-23 20:02 | 22.31911 | 84.33914 | 32026 ft | 418 kts | 253° |
| 2026-04-23 20:03 | 22.31081 | 84.30926 | 32286 ft | 415 kts | 253° |
| 2026-04-23 20:03 | 22.30255 | 84.27950 | 32551 ft | 412 kts | 252° |
| 2026-04-23 20:03 | 22.29444 | 84.25008 | 32842 ft | 408 kts | 253° |
| 2026-04-23 20:03 | 22.28638 | 84.22081 | 33106 ft | 405 kts | 252° |
| 2026-04-23 20:04 | 22.27846 | 84.19213 | 33348 ft | 402 kts | 252° |
| 2026-04-23 20:04 | 22.27039 | 84.16298 | 33605 ft | 399 kts | 252° |
| 2026-04-23 20:04 | 22.26254 | 84.13465 | 33750 ft | 398 kts | 252° |
| 2026-04-23 20:05 | 22.24917 | 84.08646 | 33788 ft | 402 kts | 252° |
| 2026-04-23 20:05 | 22.23039 | 84.01896 | 33780 ft | 405 kts | 252° |
| 2026-04-23 20:06 | 22.21410 | 83.96078 | 33776 ft | 405 kts | 252° |
| 2026-04-23 20:06 | 22.19790 | 83.90249 | 33772 ft | 405 kts | 252° |
| 2026-04-23 20:07 | 22.18166 | 83.84415 | 33775 ft | 406 kts | 252° |
| 2026-04-23 20:07 | 22.16529 | 83.78585 | 33790 ft | 407 kts | 252° |
| 2026-04-23 20:08 | 22.14897 | 83.72776 | 33792 ft | 407 kts | 252° |
| 2026-04-23 20:08 | 22.13258 | 83.66930 | 33794 ft | 407 kts | 252° |
| 2026-04-23 20:09 | 22.11618 | 83.61083 | 33795 ft | 408 kts | 252° |
| 2026-04-23 20:09 | 22.09977 | 83.55236 | 33794 ft | 408 kts | 252° |
| 2026-04-23 20:10 | 22.08600 | 83.50335 | 33800 ft | 407 kts | 252° |
| 2026-04-23 20:10 | 22.06701 | 83.43544 | 33796 ft | 407 kts | 252° |
| 2026-04-23 20:11 | 22.05155 | 83.37686 | 33780 ft | 406 kts | 253° |
| 2026-04-23 20:11 | 22.03631 | 83.31825 | 33776 ft | 406 kts | 252° |
| 2026-04-23 20:12 | 22.02082 | 83.25967 | 33772 ft | 406 kts | 252° |
| 2026-04-23 20:12 | 22.00526 | 83.20123 | 33772 ft | 406 kts | 252° |
| 2026-04-23 20:13 | 21.98965 | 83.14282 | 33771 ft | 406 kts | 252° |
| 2026-04-23 20:13 | 21.97405 | 83.08435 | 33772 ft | 405 kts | 252° |
| 2026-04-23 20:14 | 21.95850 | 83.02605 | 33773 ft | 405 kts | 252° |
| 2026-04-23 20:14 | 21.94291 | 82.96771 | 33763 ft | 405 kts | 252° |
| 2026-04-23 20:15 | 21.93000 | 82.91926 | 33760 ft | 405 kts | 252° |
| 2026-04-23 20:15 | 21.91183 | 82.85160 | 33772 ft | 404 kts | 252° |
| 2026-04-23 20:16 | 21.89618 | 82.79345 | 33758 ft | 404 kts | 252° |
| 2026-04-23 20:16 | 21.88054 | 82.73530 | 33767 ft | 405 kts | 252° |
| 2026-04-23 20:17 | 21.86750 | 82.68689 | 33759 ft | 405 kts | 252° |
| 2026-04-23 20:17 | 21.85176 | 82.62869 | 33763 ft | 405 kts | 252° |
| 2026-04-23 20:18 | 21.83598 | 82.57047 | 33762 ft | 405 kts | 252° |
| 2026-04-23 20:18 | 21.82020 | 82.51214 | 33762 ft | 405 kts | 252° |
| 2026-04-23 20:19 | 21.80445 | 82.45390 | 33763 ft | 405 kts | 252° |
| 2026-04-23 20:19 | 21.78864 | 82.39569 | 33775 ft | 405 kts | 252° |
| 2026-04-23 20:20 | 21.77275 | 82.33738 | 33771 ft | 406 kts | 252° |
| 2026-04-23 20:20 | 21.75684 | 82.27915 | 33774 ft | 406 kts | 252° |
| 2026-04-23 20:21 | 21.74095 | 82.22090 | 33768 ft | 406 kts | 252° |
| 2026-04-23 20:21 | 21.72507 | 82.16265 | 33767 ft | 406 kts | 252° |
| 2026-04-23 20:22 | 21.70912 | 82.10432 | 33770 ft | 406 kts | 252° |
| 2026-04-23 20:22 | 21.69314 | 82.04611 | 33769 ft | 406 kts | 252° |
| 2026-04-23 20:23 | 21.67720 | 81.98788 | 33762 ft | 406 kts | 252° |
| 2026-04-23 20:23 | 21.66116 | 81.92960 | 33769 ft | 406 kts | 252° |
| 2026-04-23 20:24 | 21.64518 | 81.87179 | 33768 ft | 406 kts | 252° |
| 2026-04-23 20:24 | 21.62910 | 81.81363 | 33769 ft | 406 kts | 252° |
| 2026-04-23 20:25 | 21.61295 | 81.75545 | 33782 ft | 406 kts | 252° |
| 2026-04-23 20:25 | 21.59687 | 81.69731 | 33777 ft | 406 kts | 252° |
| 2026-04-23 20:26 | 21.58075 | 81.63913 | 33788 ft | 406 kts | 251° |
| 2026-04-23 20:26 | 21.56463 | 81.58110 | 33786 ft | 405 kts | 251° |
| 2026-04-23 20:27 | 21.54846 | 81.52308 | 33779 ft | 405 kts | 251° |
| 2026-04-23 20:27 | 21.53225 | 81.46512 | 33791 ft | 405 kts | 251° |
| 2026-04-23 20:28 | 21.51615 | 81.40746 | 33781 ft | 405 kts | 251° |
| 2026-04-23 20:28 | 21.49992 | 81.34932 | 33793 ft | 405 kts | 251° |
| 2026-04-23 20:29 | 21.48373 | 81.29140 | 33794 ft | 405 kts | 251° |
| 2026-04-23 20:29 | 21.46747 | 81.23350 | 33800 ft | 405 kts | 251° |
| 2026-04-23 20:30 | 21.45117 | 81.17553 | 33815 ft | 405 kts | 251° |
| 2026-04-23 20:30 | 21.42676 | 81.08884 | 33809 ft | 405 kts | 251° |
| 2026-04-23 20:31 | 21.41034 | 81.03096 | 33819 ft | 405 kts | 251° |
| 2026-04-23 20:31 | 21.39402 | 80.97315 | 33814 ft | 405 kts | 251° |
| 2026-04-23 20:32 | 21.37782 | 80.91562 | 33817 ft | 405 kts | 251° |
| 2026-04-23 20:32 | 21.36152 | 80.85784 | 33829 ft | 405 kts | 251° |
| 2026-04-23 20:33 | 21.34513 | 80.80005 | 33823 ft | 404 kts | 251° |
| 2026-04-23 20:33 | 21.32882 | 80.74245 | 33832 ft | 403 kts | 251° |
| 2026-04-23 20:34 | 21.31246 | 80.68492 | 33831 ft | 404 kts | 251° |
| 2026-04-23 20:34 | 21.29603 | 80.62728 | 33831 ft | 404 kts | 250° |
| 2026-04-23 20:35 | 21.27958 | 80.56976 | 33830 ft | 404 kts | 250° |
| 2026-04-23 20:35 | 21.26324 | 80.51256 | 33832 ft | 403 kts | 250° |
| 2026-04-23 20:36 | 21.24686 | 80.45517 | 33832 ft | 402 kts | 250° |
| 2026-04-23 20:36 | 21.23037 | 80.39782 | 33827 ft | 402 kts | 250° |
| 2026-04-23 20:37 | 21.21402 | 80.34059 | 33831 ft | 402 kts | 250° |
| 2026-04-23 20:37 | 21.19765 | 80.28344 | 33833 ft | 401 kts | 250° |
| 2026-04-23 20:38 | 21.18121 | 80.22633 | 33816 ft | 402 kts | 250° |
| 2026-04-23 20:38 | 21.16465 | 80.16901 | 33813 ft | 403 kts | 250° |
| 2026-04-23 20:39 | 21.14807 | 80.11170 | 33832 ft | 403 kts | 250° |
| 2026-04-23 20:39 | 21.13152 | 80.05434 | 33832 ft | 402 kts | 249° |
| 2026-04-23 20:40 | 21.11499 | 79.99714 | 33835 ft | 402 kts | 250° |
| 2026-04-23 20:40 | 21.09849 | 79.93990 | 33836 ft | 402 kts | 250° |
| 2026-04-23 20:41 | 21.08203 | 79.88313 | 33838 ft | 401 kts | 249° |
| 2026-04-23 20:41 | 21.06541 | 79.82612 | 33836 ft | 401 kts | 249° |
| 2026-04-23 20:42 | 21.04878 | 79.76904 | 33838 ft | 401 kts | 249° |
| 2026-04-23 20:42 | 21.03221 | 79.71211 | 33844 ft | 401 kts | 249° |
| 2026-04-23 20:43 | 21.01559 | 79.65516 | 33844 ft | 400 kts | 249° |
| 2026-04-23 20:43 | 20.99905 | 79.59835 | 33844 ft | 400 kts | 249° |
| 2026-04-23 20:44 | 20.98246 | 79.54161 | 33848 ft | 400 kts | 249° |
| 2026-04-23 20:44 | 20.96589 | 79.48520 | 33845 ft | 399 kts | 249° |
| 2026-04-23 20:45 | 20.94920 | 79.42855 | 33846 ft | 399 kts | 249° |
| 2026-04-23 20:45 | 20.93260 | 79.37184 | 33851 ft | 400 kts | 249° |
| 2026-04-23 20:46 | 20.91594 | 79.31494 | 33847 ft | 401 kts | 249° |
| 2026-04-23 20:46 | 20.89929 | 79.25808 | 33849 ft | 401 kts | 250° |
| 2026-04-23 20:47 | 20.88373 | 79.20075 | 33856 ft | 402 kts | 251° |
| 2026-04-23 20:47 | 20.86870 | 79.14322 | 33849 ft | 402 kts | 251° |
| 2026-04-23 20:48 | 20.85342 | 79.08561 | 33850 ft | 402 kts | 250° |
| 2026-04-23 20:48 | 20.83798 | 79.02816 | 33854 ft | 402 kts | 250° |
| 2026-04-23 20:49 | 20.82253 | 78.97092 | 33846 ft | 403 kts | 250° |
| 2026-04-23 20:49 | 20.80683 | 78.91288 | 33840 ft | 404 kts | 250° |
| 2026-04-23 20:50 | 20.79123 | 78.85514 | 33842 ft | 405 kts | 250° |
| 2026-04-23 20:50 | 20.77570 | 78.79763 | 33843 ft | 405 kts | 250° |
| 2026-04-23 20:51 | 20.76001 | 78.73989 | 33830 ft | 404 kts | 250° |
| 2026-04-23 20:51 | 20.74437 | 78.68234 | 33847 ft | 403 kts | 250° |
| 2026-04-23 20:52 | 20.72870 | 78.62477 | 33841 ft | 403 kts | 250° |
| 2026-04-23 20:52 | 20.71303 | 78.56722 | 33839 ft | 404 kts | 250° |
| 2026-04-23 20:53 | 20.69737 | 78.50961 | 33839 ft | 404 kts | 250° |
| 2026-04-23 20:53 | 20.68165 | 78.45197 | 33837 ft | 404 kts | 250° |
| 2026-04-23 20:54 | 20.66587 | 78.39423 | 33837 ft | 405 kts | 250° |
| 2026-04-23 20:54 | 20.65013 | 78.33656 | 33840 ft | 405 kts | 250° |
| 2026-04-23 20:55 | 20.63431 | 78.27881 | 33834 ft | 405 kts | 250° |
| 2026-04-23 20:55 | 20.61855 | 78.22158 | 33837 ft | 405 kts | 250° |
| 2026-04-23 20:56 | 20.60274 | 78.16395 | 33831 ft | 405 kts | 250° |
| 2026-04-23 20:56 | 20.58686 | 78.10635 | 33830 ft | 405 kts | 250° |
| 2026-04-23 20:57 | 20.57091 | 78.04867 | 33838 ft | 405 kts | 250° |
| 2026-04-23 20:57 | 20.55508 | 77.99106 | 33836 ft | 405 kts | 250° |
| 2026-04-23 20:58 | 20.53951 | 77.93334 | 33832 ft | 406 kts | 250° |
| 2026-04-23 20:58 | 20.52387 | 77.87539 | 33811 ft | 408 kts | 250° |
| 2026-04-23 20:59 | 20.50830 | 77.81705 | 33813 ft | 409 kts | 251° |
| 2026-04-23 20:59 | 20.49284 | 77.75857 | 33819 ft | 410 kts | 251° |
| 2026-04-23 21:00 | 20.47737 | 77.69997 | 33836 ft | 411 kts | 251° |
| 2026-04-23 21:00 | 20.46171 | 77.64128 | 33840 ft | 411 kts | 251° |
| 2026-04-23 21:01 | 20.44612 | 77.58294 | 33843 ft | 412 kts | 251° |
| 2026-04-23 21:01 | 20.43040 | 77.52404 | 33812 ft | 414 kts | 251° |
| 2026-04-23 21:02 | 20.41455 | 77.46486 | 33811 ft | 416 kts | 251° |
| 2026-04-23 21:02 | 20.39861 | 77.40548 | 33815 ft | 417 kts | 251° |
| 2026-04-23 21:03 | 20.38259 | 77.34586 | 33826 ft | 418 kts | 251° |
| 2026-04-23 21:03 | 20.36658 | 77.28622 | 33835 ft | 419 kts | 251° |
| 2026-04-23 21:04 | 20.35054 | 77.22644 | 33853 ft | 419 kts | 251° |
| 2026-04-23 21:04 | 20.33439 | 77.16652 | 33824 ft | 422 kts | 251° |
| 2026-04-23 21:05 | 20.31811 | 77.10662 | 33830 ft | 423 kts | 250° |
| 2026-04-23 21:05 | 20.30178 | 77.04653 | 33865 ft | 422 kts | 251° |
| 2026-04-23 21:06 | 20.28560 | 76.98658 | 33859 ft | 421 kts | 251° |
| 2026-04-23 21:06 | 20.26940 | 76.92680 | 33870 ft | 420 kts | 251° |
| 2026-04-23 21:07 | 20.25314 | 76.86704 | 33868 ft | 419 kts | 251° |
| 2026-04-23 21:07 | 20.23970 | 76.81738 | 33849 ft | 420 kts | 251° |
| 2026-04-23 21:08 | 20.22341 | 76.75762 | 33852 ft | 421 kts | 251° |
| 2026-04-23 21:08 | 20.20700 | 76.69764 | 33856 ft | 422 kts | 251° |
| 2026-04-23 21:09 | 20.19065 | 76.63766 | 33863 ft | 422 kts | 251° |
| 2026-04-23 21:09 | 20.17429 | 76.57766 | 33874 ft | 422 kts | 251° |
| 2026-04-23 21:10 | 20.15782 | 76.51767 | 33877 ft | 422 kts | 251° |
| 2026-04-23 21:10 | 20.14132 | 76.45768 | 33869 ft | 423 kts | 251° |
| 2026-04-23 21:11 | 20.12476 | 76.39751 | 33865 ft | 424 kts | 251° |
| 2026-04-23 21:11 | 20.10815 | 76.33709 | 33873 ft | 425 kts | 251° |
| 2026-04-23 21:12 | 20.09162 | 76.27697 | 33875 ft | 426 kts | 251° |
| 2026-04-23 21:12 | 20.07493 | 76.21651 | 33877 ft | 426 kts | 251° |
| 2026-04-23 21:13 | 20.05819 | 76.15606 | 33885 ft | 426 kts | 251° |
| 2026-04-23 21:13 | 20.04139 | 76.09540 | 33864 ft | 428 kts | 251° |
| 2026-04-23 21:14 | 20.02456 | 76.03458 | 33856 ft | 430 kts | 251° |
| 2026-04-23 21:14 | 20.00757 | 75.97354 | 33855 ft | 431 kts | 251° |
| 2026-04-23 21:15 | 19.99061 | 75.91234 | 33866 ft | 432 kts | 251° |
| 2026-04-23 21:15 | 19.97359 | 75.85093 | 33872 ft | 433 kts | 251° |
| 2026-04-23 21:16 | 19.95651 | 75.78958 | 33877 ft | 433 kts | 251° |
| 2026-04-23 21:16 | 19.93933 | 75.72812 | 33868 ft | 435 kts | 251° |
| 2026-04-23 21:17 | 19.92209 | 75.66637 | 33864 ft | 437 kts | 251° |
| 2026-04-23 21:17 | 19.90472 | 75.60435 | 33862 ft | 438 kts | 251° |
| 2026-04-23 21:18 | 19.88736 | 75.54217 | 33861 ft | 439 kts | 251° |
| 2026-04-23 21:18 | 19.87001 | 75.48044 | 33856 ft | 439 kts | 251° |
| 2026-04-23 21:19 | 19.85261 | 75.41844 | 33891 ft | 437 kts | 251° |
| 2026-04-23 21:19 | 19.83524 | 75.35666 | 33883 ft | 435 kts | 251° |
| 2026-04-23 21:20 | 19.81785 | 75.29516 | 33879 ft | 435 kts | 251° |
| 2026-04-23 21:20 | 19.80050 | 75.23374 | 33877 ft | 434 kts | 251° |
| 2026-04-23 21:21 | 19.78316 | 75.17226 | 33872 ft | 434 kts | 251° |
| 2026-04-23 21:21 | 19.76579 | 75.11095 | 33872 ft | 434 kts | 251° |
| 2026-04-23 21:22 | 19.74849 | 75.04964 | 33874 ft | 434 kts | 251° |
| 2026-04-23 21:22 | 19.73101 | 74.98810 | 33855 ft | 436 kts | 251° |
| 2026-04-23 21:23 | 19.71347 | 74.92647 | 33856 ft | 437 kts | 251° |
| 2026-04-23 21:23 | 19.69592 | 74.86467 | 33857 ft | 438 kts | 251° |
| 2026-04-23 21:24 | 19.67822 | 74.80269 | 33863 ft | 439 kts | 251° |
| 2026-04-23 21:24 | 19.66106 | 74.74267 | 33862 ft | 435 kts | 251° |
| 2026-04-23 21:25 | 19.64718 | 74.69397 | 33846 ft | 428 kts | 251° |
| 2026-04-23 21:25 | 19.62997 | 74.63359 | 33283 ft | 429 kts | 251° |
| 2026-04-23 21:26 | 19.62126 | 74.60319 | 32435 ft | 432 kts | 251° |
| 2026-04-23 21:26 | 19.61249 | 74.57269 | 31640 ft | 433 kts | 251° |
| 2026-04-23 21:26 | 19.60366 | 74.54201 | 30790 ft | 437 kts | 251° |
| 2026-04-23 21:26 | 19.59493 | 74.51095 | 29853 ft | 442 kts | 252° |
| 2026-04-23 21:27 | 19.58636 | 74.47945 | 28812 ft | 447 kts | 252° |
| 2026-04-23 21:27 | 19.57787 | 74.44773 | 28116 ft | 444 kts | 253° |
| 2026-04-23 21:27 | 19.56953 | 74.41642 | 27573 ft | 439 kts | 253° |
| 2026-04-23 21:27 | 19.56125 | 74.38547 | 26976 ft | 434 kts | 253° |
| 2026-04-23 21:28 | 19.55299 | 74.35483 | 26401 ft | 431 kts | 253° |
| 2026-04-23 21:28 | 19.54476 | 74.32451 | 25923 ft | 425 kts | 253° |
| 2026-04-23 21:28 | 19.53656 | 74.29452 | 25350 ft | 422 kts | 253° |
| 2026-04-23 21:28 | 19.52842 | 74.26477 | 24797 ft | 419 kts | 253° |
| 2026-04-23 21:29 | 19.52034 | 74.23519 | 24236 ft | 417 kts | 254° |
| 2026-04-23 21:29 | 19.51230 | 74.20577 | 23686 ft | 415 kts | 254° |
| 2026-04-23 21:29 | 19.50430 | 74.17640 | 23073 ft | 413 kts | 254° |
| 2026-04-23 21:29 | 19.49637 | 74.14728 | 22524 ft | 410 kts | 254° |
| 2026-04-23 21:30 | 19.48844 | 74.11839 | 21989 ft | 406 kts | 254° |
| 2026-04-23 21:30 | 19.48067 | 74.09014 | 21471 ft | 403 kts | 254° |
| 2026-04-23 21:30 | 19.47276 | 74.06136 | 20949 ft | 400 kts | 254° |
| 2026-04-23 21:30 | 19.46512 | 74.03355 | 20469 ft | 397 kts | 253° |
| 2026-04-23 21:31 | 19.45744 | 74.00560 | 19978 ft | 394 kts | 253° |
| 2026-04-23 21:31 | 19.44978 | 73.97768 | 19494 ft | 391 kts | 254° |
| 2026-04-23 21:31 | 19.44221 | 73.95012 | 19028 ft | 388 kts | 254° |
| 2026-04-23 21:31 | 19.43470 | 73.92280 | 18555 ft | 385 kts | 254° |
| 2026-04-23 21:32 | 19.42725 | 73.89569 | 18082 ft | 381 kts | 253° |
| 2026-04-23 21:32 | 19.41880 | 73.86923 | 17575 ft | 378 kts | 246° |
| 2026-04-23 21:32 | 19.40695 | 73.84455 | 17126 ft | 375 kts | 241° |
| 2026-04-23 21:32 | 19.39446 | 73.82037 | 16667 ft | 374 kts | 241° |
| 2026-04-23 21:33 | 19.38203 | 73.79632 | 16185 ft | 371 kts | 241° |
| 2026-04-23 21:33 | 19.36970 | 73.77243 | 15707 ft | 368 kts | 241° |
| 2026-04-23 21:33 | 19.35738 | 73.74854 | 15217 ft | 375 kts | 241° |
| 2026-04-23 21:33 | 19.34453 | 73.72361 | 14714 ft | 400 kts | 241° |
| 2026-04-23 21:34 | 19.33091 | 73.69715 | 14182 ft | 411 kts | 241° |
| 2026-04-23 21:34 | 19.31739 | 73.67093 | 13687 ft | 402 kts | 242° |
| 2026-04-23 21:34 | 19.30402 | 73.64499 | 12995 ft | 399 kts | 240° |
| 2026-04-23 21:34 | 19.29087 | 73.61947 | 12438 ft | 391 kts | 241° |
| 2026-04-23 21:35 | 19.27798 | 73.59443 | 11912 ft | 384 kts | 240° |
| 2026-04-23 21:35 | 19.26531 | 73.56985 | 11385 ft | 377 kts | 240° |
| 2026-04-23 21:35 | 19.25282 | 73.54568 | 10864 ft | 371 kts | 240° |
| 2026-04-23 21:35 | 19.24057 | 73.52202 | 10578 ft | 359 kts | 240° |
| 2026-04-23 21:36 | 19.21772 | 73.47779 | 10322 ft | 327 kts | 242° |
| 2026-04-23 21:36 | 19.20867 | 73.45627 | 10209 ft | 314 kts | 248° |
| 2026-04-23 21:36 | 19.20152 | 73.43485 | 9985 ft | 306 kts | 251° |
| 2026-04-23 21:37 | 19.19529 | 73.41361 | 9812 ft | 298 kts | 252° |
| 2026-04-23 21:37 | 19.18933 | 73.39251 | 9720 ft | 301 kts | 252° |
| 2026-04-23 21:37 | 19.18325 | 73.37110 | 9212 ft | 304 kts | 252° |
| 2026-04-23 21:37 | 19.17703 | 73.34966 | 8740 ft | 305 kts | 252° |
| 2026-04-23 21:38 | 19.17075 | 73.32849 | 8376 ft | 299 kts | 252° |
| 2026-04-23 21:38 | 19.16446 | 73.30755 | 7903 ft | 298 kts | 252° |
| 2026-04-23 21:38 | 19.15817 | 73.28680 | 7418 ft | 294 kts | 252° |
| 2026-04-23 21:38 | 19.15203 | 73.26662 | 6790 ft | 291 kts | 253° |
| 2026-04-23 21:39 | 19.14582 | 73.24629 | 6259 ft | 289 kts | 253° |
| 2026-04-23 21:39 | 19.13965 | 73.22618 | 5747 ft | 285 kts | 253° |
| 2026-04-23 21:39 | 19.13358 | 73.20637 | 5332 ft | 282 kts | 253° |
| 2026-04-23 21:39 | 19.12755 | 73.18665 | 4866 ft | 281 kts | 254° |
| 2026-04-23 21:40 | 19.12157 | 73.16708 | 4384 ft | 280 kts | 254° |
| 2026-04-23 21:40 | 19.11557 | 73.14740 | 3966 ft | 281 kts | 255° |
| 2026-04-23 21:40 | 19.10967 | 73.12822 | 3892 ft | 265 kts | 255° |
| 2026-04-23 21:40 | 19.10419 | 73.11050 | 3848 ft | 246 kts | 255° |
| 2026-04-23 21:41 | 19.09902 | 73.09374 | 3719 ft | 232 kts | 255° |
| 2026-04-23 21:41 | 19.09420 | 73.07801 | 3620 ft | 219 kts | 255° |
| 2026-04-23 21:41 | 19.09137 | 73.06250 | 3334 ft | 213 kts | 270° |
| 2026-04-23 21:41 | 19.09100 | 73.04708 | 3042 ft | 207 kts | 274° |
| 2026-04-23 21:42 | 19.09087 | 73.03204 | 2770 ft | 202 kts | 273° |
| 2026-04-23 21:42 | 19.09070 | 73.01736 | 2519 ft | 198 kts | 273° |
| 2026-04-23 21:42 | 19.09052 | 73.00287 | 2273 ft | 197 kts | 272° |
| 2026-04-23 21:42 | 19.09033 | 72.98852 | 2043 ft | 195 kts | 272° |
| 2026-04-23 21:43 | 19.09015 | 72.97427 | 1788 ft | 193 kts | 272° |
| 2026-04-23 21:43 | 19.08996 | 72.96078 | 1549 ft | 179 kts | 272° |
| 2026-04-23 21:43 | 19.08978 | 72.94792 | 1320 ft | 172 kts | 274° |
| 2026-04-23 21:43 | 19.08962 | 72.93541 | 1103 ft | 165 kts | 273° |
| 2026-04-23 21:44 | 19.08945 | 72.92378 | 904 ft | 154 kts | 273° |
| 2026-04-23 21:44 | 19.08931 | 72.91257 | 714 ft | 151 kts | 273° |
| 2026-04-23 21:44 | 19.08919 | 72.90162 | 580 ft | 147 kts | 271° |
| 2026-04-23 21:44 | 19.08908 | 72.89087 | 364 ft | 146 kts | 274° |
| 2026-04-23 21:45 | 19.08888 | 72.88001 | 156 ft | 149 kts | 272° |
| 2026-04-23 21:45 | 19.08876 | 72.86917 | 61 ft | 140 kts | 274° |
| 2026-04-23 21:45 | 19.08864 | 72.86013 | 47 ft | 100 kts | 270° |
| 2026-04-23 21:45 | 19.08855 | 72.85458 | 50 ft | 51 kts | 269° |
| 2026-04-23 21:46 | 19.08853 | 72.85267 | 51 ft | 1 kts | 269° |
| 2026-04-23 21:46 | 19.08853 | 72.85262 | 51 ft | 2 kts | 269° |
| 2026-04-23 21:46 | 19.08852 | 72.85228 | 50 ft | 6 kts | 269° |
| 2026-04-23 21:46 | 19.08853 | 72.85177 | 50 ft | 8 kts | 278° |
| 2026-04-23 21:47 | 19.08893 | 72.85131 | 50 ft | 10 kts | 339° |
| 2026-04-23 21:47 | 19.08966 | 72.85124 | 49 ft | 11 kts | 0° |
| 2026-04-23 21:47 | 19.09038 | 72.85124 | 49 ft | 11 kts | 357° |
| 2026-04-23 21:47 | 19.09086 | 72.85170 | 49 ft | 10 kts | 82° |
| 2026-04-23 21:48 | 19.09088 | 72.85189 | 49 ft | 1 kts | 85° |
| 2026-04-23 21:48 | 19.09089 | 72.85191 | 49 ft | 1 kts | 77° |
| 2026-04-23 21:48 | 19.09103 | 72.85202 | 47 ft | 4 kts | 18° |
| 2026-04-23 21:48 | 19.09130 | 72.85203 | 49 ft | 3 kts | 1° |
| 2026-04-23 21:49 | 19.09144 | 72.85203 | 49 ft | 1 kts | 0° |
| 2026-04-23 21:49 | 19.09148 | 72.85203 | 49 ft | 0 kts | 360° |
| 2026-04-23 21:49 | 19.09150 | 72.85203 | 49 ft | 1 kts | 360° |
| 2026-04-23 21:49 | 19.09151 | 72.85203 | 49 ft | 0 kts | 360° |